sensor_id;sensor_type;location;lat;lon;timestamp;pressure;altitude;pressure_sealevel;temperature;humidity
7768;BME280;3928;42.626;23.382;2023-09-19T00:00:34;94577.03;;;20.15;66.35
7768;BME280;3928;42.626;23.382;2023-09-19T00:03:01;94566.75;;;20.12;67.14
7768;BME280;3928;42.626;23.382;2023-09-19T00:05:34;94564.44;;;20.06;67.68
7768;BME280;3928;42.626;23.382;2023-09-19T00:08:01;94570.59;;;20.05;68.93
7768;BME280;3928;42.626;23.382;2023-09-19T00:10:30;94575.19;;;20.17;67.38
7768;BME280;3928;42.626;23.382;2023-09-19T00:12:58;94577.78;;;20.17;67.67
7768;BME280;3928;42.626;23.382;2023-09-19T00:15:25;94571.44;;;20.05;67.13
7768;BME280;3928;42.626;23.382;2023-09-19T00:17:54;94564.97;;;19.78;68.49
7768;BME280;3928;42.626;23.382;2023-09-19T00:20:21;94554.59;;;19.76;68.49
7768;BME280;3928;42.626;23.382;2023-09-19T00:22:51;94563.03;;;19.81;69.26
7768;BME280;3928;42.626;23.382;2023-09-19T00:25:19;94562.41;;;19.76;70.40
7768;BME280;3928;42.626;23.382;2023-09-19T00:27:46;94568.66;;;19.91;68.70
7768;BME280;3928;42.626;23.382;2023-09-19T00:30:15;94558.38;;;19.88;67.98
7768;BME280;3928;42.626;23.382;2023-09-19T00:32:45;94555.56;;;19.93;68.55
7768;BME280;3928;42.626;23.382;2023-09-19T00:35:14;94552.31;;;19.88;68.46
7768;BME280;3928;42.626;23.382;2023-09-19T00:37:41;94539.25;;;19.89;68.25
7768;BME280;3928;42.626;23.382;2023-09-19T00:40:10;94559.69;;;19.79;68.68
7768;BME280;3928;42.626;23.382;2023-09-19T00:42:38;94557.03;;;19.62;69.17
7768;BME280;3928;42.626;23.382;2023-09-19T00:45:07;94530.44;;;19.55;70.77
7768;BME280;3928;42.626;23.382;2023-09-19T00:47:37;94549.38;;;19.59;70.24
7768;BME280;3928;42.626;23.382;2023-09-19T00:50:05;94542.94;;;19.47;70.45
7768;BME280;3928;42.626;23.382;2023-09-19T00:52:33;94525.47;;;19.13;71.93
7768;BME280;3928;42.626;23.382;2023-09-19T00:55:02;94544.94;;;19.23;72.38
7768;BME280;3928;42.626;23.382;2023-09-19T00:57:31;94539.75;;;19.23;71.95
7768;BME280;3928;42.626;23.382;2023-09-19T01:00:00;94541.22;;;19.10;73.04
7768;BME280;3928;42.626;23.382;2023-09-19T01:02:31;94528.13;;;19.12;72.50
7768;BME280;3928;42.626;23.382;2023-09-19T01:04:58;94541.28;;;19.09;73.52
7768;BME280;3928;42.626;23.382;2023-09-19T01:07:25;94512.75;;;19.07;73.71
7768;BME280;3928;42.626;23.382;2023-09-19T01:09:52;94543.94;;;19.26;73.10
7768;BME280;3928;42.626;23.382;2023-09-19T01:12:26;94551.41;;;19.34;72.85
7768;BME280;3928;42.626;23.382;2023-09-19T01:15:04;94539.59;;;19.45;72.94
7768;BME280;3928;42.626;23.382;2023-09-19T01:17:41;94548.16;;;19.47;71.77
7768;BME280;3928;42.626;23.382;2023-09-19T01:20:24;94536.22;;;19.24;72.05
7768;BME280;3928;42.626;23.382;2023-09-19T01:23:02;94535.53;;;19.21;72.48
7768;BME280;3928;42.626;23.382;2023-09-19T01:28:30;94529.41;;;18.84;73.71
7768;BME280;3928;42.626;23.382;2023-09-19T01:31:04;94549.00;;;18.73;75.06
7768;BME280;3928;42.626;23.382;2023-09-19T01:33:59;94547.34;;;18.70;75.34
7768;BME280;3928;42.626;23.382;2023-09-19T01:36:27;94540.97;;;18.77;75.00
7768;BME280;3928;42.626;23.382;2023-09-19T01:38:57;94546.41;;;18.73;75.55
7768;BME280;3928;42.626;23.382;2023-09-19T01:44:21;94533.63;;;18.87;75.32
7768;BME280;3928;42.626;23.382;2023-09-19T01:46:51;94518.63;;;18.92;74.94
7768;BME280;3928;42.626;23.382;2023-09-19T01:49:28;94527.84;;;18.99;74.65
7768;BME280;3928;42.626;23.382;2023-09-19T01:52:03;94533.56;;;19.07;74.03
7768;BME280;3928;42.626;23.382;2023-09-19T01:54:39;94527.50;;;18.88;74.81
7768;BME280;3928;42.626;23.382;2023-09-19T01:57:16;94534.91;;;18.97;74.46
7768;BME280;3928;42.626;23.382;2023-09-19T01:59:48;94533.00;;;19.01;73.97
7768;BME280;3928;42.626;23.382;2023-09-19T02:02:20;94536.94;;;19.09;73.81
7768;BME280;3928;42.626;23.382;2023-09-19T02:04:48;94538.16;;;18.82;74.76
7768;BME280;3928;42.626;23.382;2023-09-19T02:07:16;94551.66;;;18.71;75.62
7768;BME280;3928;42.626;23.382;2023-09-19T02:09:43;94545.72;;;18.88;74.92
7768;BME280;3928;42.626;23.382;2023-09-19T02:12:09;94557.34;;;18.79;75.33
7768;BME280;3928;42.626;23.382;2023-09-19T02:14:36;94543.31;;;18.63;75.28
7768;BME280;3928;42.626;23.382;2023-09-19T02:17:03;94544.44;;;18.78;74.05
7768;BME280;3928;42.626;23.382;2023-09-19T02:19:38;94534.66;;;18.64;74.10
7768;BME280;3928;42.626;23.382;2023-09-19T02:22:07;94550.81;;;18.50;74.98
7768;BME280;3928;42.626;23.382;2023-09-19T02:24:36;94540.22;;;18.34;76.16
7768;BME280;3928;42.626;23.382;2023-09-19T02:27:03;94549.28;;;18.26;76.71
7768;BME280;3928;42.626;23.382;2023-09-19T02:29:30;94546.06;;;18.39;76.16
7768;BME280;3928;42.626;23.382;2023-09-19T02:31:57;94549.44;;;18.41;75.70
7768;BME280;3928;42.626;23.382;2023-09-19T02:34:25;94542.34;;;18.45;75.38
7768;BME280;3928;42.626;23.382;2023-09-19T02:36:54;94533.94;;;18.40;75.15
7768;BME280;3928;42.626;23.382;2023-09-19T02:39:21;94467.06;;;18.04;74.97
7768;BME280;3928;42.626;23.382;2023-09-19T02:41:49;94531.44;;;18.57;74.81
7768;BME280;3928;42.626;23.382;2023-09-19T02:44:15;94507.66;;;18.66;73.71
7768;BME280;3928;42.626;23.382;2023-09-19T02:46:42;94519.06;;;18.83;73.58
7768;BME280;3928;42.626;23.382;2023-09-19T02:49:09;94491.81;;;18.73;73.48
7768;BME280;3928;42.626;23.382;2023-09-19T02:51:36;94502.59;;;18.82;73.66
7768;BME280;3928;42.626;23.382;2023-09-19T02:54:04;94502.59;;;18.82;74.22
7768;BME280;3928;42.626;23.382;2023-09-19T02:56:31;94502.56;;;18.84;74.92
7768;BME280;3928;42.626;23.382;2023-09-19T02:58:58;94498.19;;;18.65;76.26
7768;BME280;3928;42.626;23.382;2023-09-19T03:01:26;94478.97;;;18.49;76.43
7768;BME280;3928;42.626;23.382;2023-09-19T03:03:53;94498.94;;;18.67;76.69
7768;BME280;3928;42.626;23.382;2023-09-19T03:06:20;94497.97;;;18.70;76.45
7768;BME280;3928;42.626;23.382;2023-09-19T03:08:47;94494.47;;;18.71;76.63
7768;BME280;3928;42.626;23.382;2023-09-19T03:11:18;94494.53;;;18.69;76.30
7768;BME280;3928;42.626;23.382;2023-09-19T03:13:51;94495.94;;;18.56;77.36
7768;BME280;3928;42.626;23.382;2023-09-19T03:16:18;94494.56;;;18.49;77.60
7768;BME280;3928;42.626;23.382;2023-09-19T03:18:47;94490.19;;;18.50;77.43
7768;BME280;3928;42.626;23.382;2023-09-19T03:21:14;94474.03;;;18.43;77.41
7768;BME280;3928;42.626;23.382;2023-09-19T03:23:41;94488.59;;;18.47;77.52
7768;BME280;3928;42.626;23.382;2023-09-19T03:26:08;94494.47;;;18.51;77.57
7768;BME280;3928;42.626;23.382;2023-09-19T03:28:37;94495.00;;;18.59;77.45
7768;BME280;3928;42.626;23.382;2023-09-19T03:31:05;94493.91;;;18.64;77.21
7768;BME280;3928;42.626;23.382;2023-09-19T03:33:32;94474.59;;;18.50;77.19
7768;BME280;3928;42.626;23.382;2023-09-19T03:36:00;94491.13;;;18.49;77.64
7768;BME280;3928;42.626;23.382;2023-09-19T03:38:29;94464.44;;;18.25;78.06
7768;BME280;3928;42.626;23.382;2023-09-19T03:40:56;94495.63;;;18.25;78.77
7768;BME280;3928;42.626;23.382;2023-09-19T03:43:23;94493.94;;;18.03;79.83
7768;BME280;3928;42.626;23.382;2023-09-19T03:45:51;94491.72;;;17.94;80.47
7768;BME280;3928;42.626;23.382;2023-09-19T03:48:20;94489.78;;;17.99;80.36
7768;BME280;3928;42.626;23.382;2023-09-19T03:50:47;94498.22;;;18.04;80.25
7768;BME280;3928;42.626;23.382;2023-09-19T03:53:14;94491.22;;;18.06;80.20
7768;BME280;3928;42.626;23.382;2023-09-19T03:55:40;94502.63;;;18.23;79.80
7768;BME280;3928;42.626;23.382;2023-09-19T03:58:07;94505.41;;;18.38;79.07
7768;BME280;3928;42.626;23.382;2023-09-19T04:00:34;94507.03;;;18.41;78.50
7768;BME280;3928;42.626;23.382;2023-09-19T04:03:03;94510.22;;;18.48;78.72
7768;BME280;3928;42.626;23.382;2023-09-19T04:05:31;94515.78;;;18.59;80.31
7768;BME280;3928;42.626;23.382;2023-09-19T04:07:59;94495.78;;;18.80;81.22
7768;BME280;3928;42.626;23.382;2023-09-19T04:10:26;94492.22;;;19.01;79.69
7768;BME280;3928;42.626;23.382;2023-09-19T04:12:53;94463.25;;;18.90;75.40
7768;BME280;3928;42.626;23.382;2023-09-19T04:15:21;94526.34;;;19.50;77.27
7768;BME280;3928;42.626;23.382;2023-09-19T04:17:49;94519.28;;;19.71;76.49
7768;BME280;3928;42.626;23.382;2023-09-19T04:20:17;94527.34;;;20.01;78.82
7768;BME280;3928;42.626;23.382;2023-09-19T04:22:45;94520.97;;;20.24;77.55
7768;BME280;3928;42.626;23.382;2023-09-19T04:25:12;94529.28;;;20.49;73.37
7768;BME280;3928;42.626;23.382;2023-09-19T04:27:40;94507.94;;;20.58;72.67
7768;BME280;3928;42.626;23.382;2023-09-19T04:30:10;94521.81;;;20.41;68.90
7768;BME280;3928;42.626;23.382;2023-09-19T04:32:38;94523.13;;;20.33;69.79
7768;BME280;3928;42.626;23.382;2023-09-19T04:35:07;94510.75;;;20.03;69.55
7768;BME280;3928;42.626;23.382;2023-09-19T04:37:37;94525.53;;;20.03;71.58
7768;BME280;3928;42.626;23.382;2023-09-19T04:40:06;94525.38;;;20.06;70.27
7768;BME280;3928;42.626;23.382;2023-09-19T04:42:38;94513.31;;;19.86;70.35
7768;BME280;3928;42.626;23.382;2023-09-19T04:45:06;94520.13;;;19.89;70.38
7768;BME280;3928;42.626;23.382;2023-09-19T04:47:35;94518.88;;;19.61;71.18
7768;BME280;3928;42.626;23.382;2023-09-19T04:50:06;94522.97;;;19.48;71.84
7768;BME280;3928;42.626;23.382;2023-09-19T04:52:39;94521.81;;;19.55;71.88
7768;BME280;3928;42.626;23.382;2023-09-19T04:55:08;94521.28;;;19.66;71.71
7768;BME280;3928;42.626;23.382;2023-09-19T04:57:36;94520.75;;;19.76;71.71
7768;BME280;3928;42.626;23.382;2023-09-19T05:00:05;94520.09;;;19.90;72.77
7768;BME280;3928;42.626;23.382;2023-09-19T05:02:38;94508.72;;;20.08;70.89
7768;BME280;3928;42.626;23.382;2023-09-19T05:05:06;94504.59;;;20.22;69.57
7768;BME280;3928;42.626;23.382;2023-09-19T05:07:33;94500.53;;;20.16;69.65
7768;BME280;3928;42.626;23.382;2023-09-19T05:10:02;94487.72;;;20.11;70.35
7768;BME280;3928;42.626;23.382;2023-09-19T05:12:32;94504.75;;;19.84;71.83
7768;BME280;3928;42.626;23.382;2023-09-19T05:14:59;94500.38;;;19.84;73.55
7768;BME280;3928;42.626;23.382;2023-09-19T05:17:26;94498.84;;;19.80;72.84
7768;BME280;3928;42.626;23.382;2023-09-19T05:19:53;94494.66;;;19.78;72.47
7768;BME280;3928;42.626;23.382;2023-09-19T05:22:20;94503.13;;;19.81;72.00
7768;BME280;3928;42.626;23.382;2023-09-19T05:24:47;94506.13;;;19.74;72.96
7768;BME280;3928;42.626;23.382;2023-09-19T05:27:15;94503.31;;;19.78;72.29
7768;BME280;3928;42.626;23.382;2023-09-19T05:29:43;94505.72;;;19.64;73.32
7768;BME280;3928;42.626;23.382;2023-09-19T05:32:09;94498.94;;;19.79;73.66
7768;BME280;3928;42.626;23.382;2023-09-19T05:34:38;94486.81;;;20.12;73.09
7768;BME280;3928;42.626;23.382;2023-09-19T05:37:05;94491.63;;;20.20;71.15
7768;BME280;3928;42.626;23.382;2023-09-19T05:39:33;94492.56;;;20.19;71.21
7768;BME280;3928;42.626;23.382;2023-09-19T05:42:00;94496.53;;;20.43;70.42
7768;BME280;3928;42.626;23.382;2023-09-19T05:44:28;94489.44;;;20.63;70.76
7768;BME280;3928;42.626;23.382;2023-09-19T05:46:55;94486.28;;;20.89;69.75
7768;BME280;3928;42.626;23.382;2023-09-19T05:49:23;94490.09;;;21.15;69.16
7768;BME280;3928;42.626;23.382;2023-09-19T05:51:50;94460.31;;;21.19;68.57
7768;BME280;3928;42.626;23.382;2023-09-19T05:54:19;94483.53;;;21.55;67.56
7768;BME280;3928;42.626;23.382;2023-09-19T05:56:46;94476.78;;;21.67;65.98
7768;BME280;3928;42.626;23.382;2023-09-19T05:59:14;94479.47;;;21.66;66.18
7768;BME280;3928;42.626;23.382;2023-09-19T06:01:43;94468.31;;;21.78;65.59
7768;BME280;3928;42.626;23.382;2023-09-19T06:04:10;94475.50;;;22.04;65.41
7768;BME280;3928;42.626;23.382;2023-09-19T06:06:36;94473.59;;;22.22;64.62
7768;BME280;3928;42.626;23.382;2023-09-19T06:09:05;94470.00;;;22.39;63.31
7768;BME280;3928;42.626;23.382;2023-09-19T06:11:34;94475.88;;;22.57;62.41
7768;BME280;3928;42.626;23.382;2023-09-19T06:14:00;94476.34;;;22.63;62.51
7768;BME280;3928;42.626;23.382;2023-09-19T06:16:27;94467.38;;;22.67;61.81
7768;BME280;3928;42.626;23.382;2023-09-19T06:18:56;94477.59;;;22.86;60.91
7768;BME280;3928;42.626;23.382;2023-09-19T06:21:25;94475.06;;;22.99;61.34
7768;BME280;3928;42.626;23.382;2023-09-19T06:23:52;94470.56;;;23.01;60.94
7768;BME280;3928;42.626;23.382;2023-09-19T06:26:19;94469.00;;;23.25;60.28
7768;BME280;3928;42.626;23.382;2023-09-19T06:28:46;94469.53;;;23.45;59.75
7768;BME280;3928;42.626;23.382;2023-09-19T06:31:13;94471.28;;;23.58;58.26
7768;BME280;3928;42.626;23.382;2023-09-19T06:33:40;94466.09;;;23.71;58.39
7768;BME280;3928;42.626;23.382;2023-09-19T06:36:09;94465.50;;;23.80;57.82
7768;BME280;3928;42.626;23.382;2023-09-19T06:38:37;94442.63;;;23.70;55.90
7768;BME280;3928;42.626;23.382;2023-09-19T06:41:06;94463.03;;;24.04;57.27
7768;BME280;3928;42.626;23.382;2023-09-19T06:43:34;94441.63;;;24.10;55.66
7768;BME280;3928;42.626;23.382;2023-09-19T06:46:01;94460.22;;;24.20;55.79
7768;BME280;3928;42.626;23.382;2023-09-19T06:48:29;94467.06;;;24.35;55.94
7768;BME280;3928;42.626;23.382;2023-09-19T06:50:56;94466.84;;;24.38;55.00
7768;BME280;3928;42.626;23.382;2023-09-19T06:53:31;94468.75;;;24.36;54.13
7768;BME280;3928;42.626;23.382;2023-09-19T06:55:58;94478.09;;;24.40;55.93
7768;BME280;3928;42.626;23.382;2023-09-19T06:58:25;94471.22;;;24.25;55.34
7768;BME280;3928;42.626;23.382;2023-09-19T07:00:52;94473.00;;;24.25;54.99
7768;BME280;3928;42.626;23.382;2023-09-19T07:03:19;94461.78;;;24.10;55.25
7768;BME280;3928;42.626;23.382;2023-09-19T07:05:50;94476.16;;;24.04;54.96
7768;BME280;3928;42.626;23.382;2023-09-19T07:08:18;94454.19;;;23.80;55.77
7768;BME280;3928;42.626;23.382;2023-09-19T07:10:47;94481.88;;;23.97;56.93
7768;BME280;3928;42.626;23.382;2023-09-19T07:13:15;94481.44;;;23.90;56.64
7768;BME280;3928;42.626;23.382;2023-09-19T07:15:43;94492.03;;;23.88;57.63
7768;BME280;3928;42.626;23.382;2023-09-19T07:18:13;94489.41;;;23.88;57.47
7768;BME280;3928;42.626;23.382;2023-09-19T07:20:41;94484.38;;;23.85;57.01
7768;BME280;3928;42.626;23.382;2023-09-19T07:23:11;94486.41;;;23.95;56.63
7768;BME280;3928;42.626;23.382;2023-09-19T07:25:39;94488.91;;;23.96;57.12
7768;BME280;3928;42.626;23.382;2023-09-19T07:28:07;94483.56;;;23.98;57.14
7768;BME280;3928;42.626;23.382;2023-09-19T07:30:36;94467.50;;;23.89;56.10
7768;BME280;3928;42.626;23.382;2023-09-19T07:33:04;94476.16;;;24.04;56.82
7768;BME280;3928;42.626;23.382;2023-09-19T07:35:31;94487.78;;;24.13;55.59
7768;BME280;3928;42.626;23.382;2023-09-19T07:37:59;94477.06;;;24.03;56.39
7768;BME280;3928;42.626;23.382;2023-09-19T07:40:27;94486.53;;;24.18;56.44
7768;BME280;3928;42.626;23.382;2023-09-19T07:42:54;94473.19;;;24.09;55.39
7768;BME280;3928;42.626;23.382;2023-09-19T07:45:23;94490.94;;;24.18;55.29
7768;BME280;3928;42.626;23.382;2023-09-19T07:47:50;94489.59;;;24.25;56.90
7768;BME280;3928;42.626;23.382;2023-09-19T07:50:18;94465.47;;;24.20;55.36
7768;BME280;3928;42.626;23.382;2023-09-19T07:52:46;94483.97;;;24.31;56.35
7768;BME280;3928;42.626;23.382;2023-09-19T07:55:13;94480.50;;;24.31;55.76
7768;BME280;3928;42.626;23.382;2023-09-19T07:57:41;94496.88;;;24.47;54.02
7768;BME280;3928;42.626;23.382;2023-09-19T08:00:10;94494.59;;;24.55;55.65
7768;BME280;3928;42.626;23.382;2023-09-19T08:02:39;94489.22;;;24.57;54.91
7768;BME280;3928;42.626;23.382;2023-09-19T08:05:07;94492.06;;;24.66;55.00
7768;BME280;3928;42.626;23.382;2023-09-19T08:07:36;94473.16;;;24.61;54.29
7768;BME280;3928;42.626;23.382;2023-09-19T08:10:04;94495.41;;;24.81;54.57
7768;BME280;3928;42.626;23.382;2023-09-19T08:12:33;94478.00;;;24.80;53.75
7768;BME280;3928;42.626;23.382;2023-09-19T08:15:01;94479.03;;;24.90;54.69
7768;BME280;3928;42.626;23.382;2023-09-19T08:17:28;94483.34;;;25.04;54.20
7768;BME280;3928;42.626;23.382;2023-09-19T08:19:56;94472.41;;;25.10;53.44
7768;BME280;3928;42.626;23.382;2023-09-19T08:22:23;94478.28;;;25.14;52.84
7768;BME280;3928;42.626;23.382;2023-09-19T08:24:50;94474.69;;;25.27;52.71
7768;BME280;3928;42.626;23.382;2023-09-19T08:27:17;94471.44;;;25.24;51.52
7768;BME280;3928;42.626;23.382;2023-09-19T08:29:44;94465.47;;;24.96;50.88
7768;BME280;3928;42.626;23.382;2023-09-19T08:32:12;94444.78;;;24.92;52.47
7768;BME280;3928;42.626;23.382;2023-09-19T08:34:39;94460.13;;;25.11;53.64
7768;BME280;3928;42.626;23.382;2023-09-19T08:37:08;94458.22;;;25.13;54.15
7768;BME280;3928;42.626;23.382;2023-09-19T08:39:35;94460.50;;;25.17;53.33
7768;BME280;3928;42.626;23.382;2023-09-19T08:42:03;94458.78;;;25.29;54.32
7768;BME280;3928;42.626;23.382;2023-09-19T08:44:30;94463.81;;;25.32;54.13
7768;BME280;3928;42.626;23.382;2023-09-19T08:47:08;94461.06;;;25.46;51.45
7768;BME280;3928;42.626;23.382;2023-09-19T08:49:41;94452.47;;;24.82;52.03
7768;BME280;3928;42.626;23.382;2023-09-19T08:52:16;94439.44;;;24.81;51.63
7768;BME280;3928;42.626;23.382;2023-09-19T08:54:47;94458.22;;;25.13;53.03
7768;BME280;3928;42.626;23.382;2023-09-19T08:57:17;94437.91;;;25.27;54.74
7768;BME280;3928;42.626;23.382;2023-09-19T08:59:48;94447.75;;;25.60;53.51
7768;BME280;3928;42.626;23.382;2023-09-19T09:02:16;94456.44;;;25.98;52.92
7768;BME280;3928;42.626;23.382;2023-09-19T09:04:45;94452.06;;;26.20;49.66
7768;BME280;3928;42.626;23.382;2023-09-19T09:07:14;94451.00;;;26.23;49.75
7768;BME280;3928;42.626;23.382;2023-09-19T09:09:42;94447.63;;;26.10;48.77
7768;BME280;3928;42.626;23.382;2023-09-19T09:12:11;94446.22;;;26.17;50.42
7768;BME280;3928;42.626;23.382;2023-09-19T09:14:39;94444.50;;;26.16;49.22
7768;BME280;3928;42.626;23.382;2023-09-19T09:17:07;94438.91;;;26.20;51.82
7768;BME280;3928;42.626;23.382;2023-09-19T09:19:34;94442.88;;;26.26;50.10
7768;BME280;3928;42.626;23.382;2023-09-19T09:22:08;94438.28;;;26.41;49.95
7768;BME280;3928;42.626;23.382;2023-09-19T09:24:37;94448.59;;;26.55;50.39
7768;BME280;3928;42.626;23.382;2023-09-19T09:27:06;94416.75;;;26.58;50.80
7768;BME280;3928;42.626;23.382;2023-09-19T09:29:41;94425.50;;;26.81;49.78
7768;BME280;3928;42.626;23.382;2023-09-19T09:32:23;94431.50;;;27.05;49.04
7768;BME280;3928;42.626;23.382;2023-09-19T09:34:52;94426.56;;;27.23;48.87
7768;BME280;3928;42.626;23.382;2023-09-19T09:37:19;94427.97;;;27.38;46.43
7768;BME280;3928;42.626;23.382;2023-09-19T09:39:52;94427.69;;;27.53;47.46
7768;BME280;3928;42.626;23.382;2023-09-19T09:42:32;94417.22;;;27.62;48.02
7768;BME280;3928;42.626;23.382;2023-09-19T09:45:14;94417.53;;;27.80;47.91
7768;BME280;3928;42.626;23.382;2023-09-19T09:47:42;94414.09;;;28.01;47.34
7768;BME280;3928;42.626;23.382;2023-09-19T09:50:26;94408.50;;;28.15;45.36
7768;BME280;3928;42.626;23.382;2023-09-19T09:53:19;94415.88;;;28.32;44.70
7768;BME280;3928;42.626;23.382;2023-09-19T09:56:05;94388.47;;;28.12;44.15
7768;BME280;3928;42.626;23.382;2023-09-19T09:58:33;94405.78;;;28.26;45.53
7768;BME280;3928;42.626;23.382;2023-09-19T10:01:01;94397.94;;;28.57;45.01
7768;BME280;3928;42.626;23.382;2023-09-19T10:03:35;94390.22;;;28.74;42.01
7768;BME280;3928;42.626;23.382;2023-09-19T10:06:07;94391.19;;;28.94;45.32
7768;BME280;3928;42.626;23.382;2023-09-19T10:09:03;94388.47;;;29.15;44.24
7768;BME280;3928;42.626;23.382;2023-09-19T10:11:41;94391.97;;;29.25;43.37
7768;BME280;3928;42.626;23.382;2023-09-19T10:14:10;94386.06;;;29.12;42.42
7768;BME280;3928;42.626;23.382;2023-09-19T10:19:33;94323.94;;;28.77;42.33
7768;BME280;3928;42.626;23.382;2023-09-19T10:22:04;94392.34;;;29.21;41.07
7768;BME280;3928;42.626;23.382;2023-09-19T10:24:35;94390.69;;;29.20;41.91
7768;BME280;3928;42.626;23.382;2023-09-19T10:27:06;94382.88;;;29.08;43.34
7768;BME280;3928;42.626;23.382;2023-09-19T10:29:36;94383.97;;;28.75;42.55
7768;BME280;3928;42.626;23.382;2023-09-19T10:32:06;94382.44;;;28.73;44.38
7768;BME280;3928;42.626;23.382;2023-09-19T10:34:35;94385.53;;;28.78;43.93
7768;BME280;3928;42.626;23.382;2023-09-19T10:37:03;94386.47;;;28.77;43.91
7768;BME280;3928;42.626;23.382;2023-09-19T10:39:32;94375.53;;;28.81;44.11
7768;BME280;3928;42.626;23.382;2023-09-19T10:42:02;94372.75;;;28.83;44.83
7768;BME280;3928;42.626;23.382;2023-09-19T10:44:32;94372.97;;;28.91;44.37
7768;BME280;3928;42.626;23.382;2023-09-19T10:46:59;94372.47;;;28.86;41.45
7768;BME280;3928;42.626;23.382;2023-09-19T10:49:27;94357.63;;;28.54;42.08
7768;BME280;3928;42.626;23.382;2023-09-19T10:51:56;94365.66;;;28.43;42.33
7768;BME280;3928;42.626;23.382;2023-09-19T10:54:28;94373.66;;;28.32;42.90
7768;BME280;3928;42.626;23.382;2023-09-19T10:56:56;94368.13;;;28.24;43.77
7768;BME280;3928;42.626;23.382;2023-09-19T10:59:25;94362.03;;;28.23;43.53
7768;BME280;3928;42.626;23.382;2023-09-19T11:02:15;94363.78;;;28.34;45.73
7768;BME280;3928;42.626;23.382;2023-09-19T11:04:43;94363.00;;;28.43;46.11
7768;BME280;3928;42.626;23.382;2023-09-19T11:07:13;94362.09;;;28.54;46.23
7768;BME280;3928;42.626;23.382;2023-09-19T11:09:46;94356.06;;;28.42;44.36
7768;BME280;3928;42.626;23.382;2023-09-19T11:12:48;94353.41;;;28.42;43.28
7768;BME280;3928;42.626;23.382;2023-09-19T11:21:40;94343.88;;;28.61;46.01
7768;BME280;3928;42.626;23.382;2023-09-19T11:24:29;94343.78;;;28.72;43.68
7768;BME280;3928;42.626;23.382;2023-09-19T11:27:10;94295.75;;;28.47;44.24
7768;BME280;3928;42.626;23.382;2023-09-19T11:29:37;94338.53;;;28.81;45.32
7768;BME280;3928;42.626;23.382;2023-09-19T11:32:04;94339.09;;;28.85;44.39
7768;BME280;3928;42.626;23.382;2023-09-19T11:34:43;94343.63;;;28.94;45.66
7768;BME280;3928;42.626;23.382;2023-09-19T11:40:37;94326.69;;;29.06;43.86
7768;BME280;3928;42.626;23.382;2023-09-19T11:43:32;94326.47;;;28.89;42.69
7768;BME280;3928;42.626;23.382;2023-09-19T11:46:06;94317.22;;;28.64;42.78
7768;BME280;3928;42.626;23.382;2023-09-19T11:48:34;94309.28;;;28.64;44.43
7768;BME280;3928;42.626;23.382;2023-09-19T11:51:11;94295.97;;;28.65;44.94
7768;BME280;3928;42.626;23.382;2023-09-19T11:53:42;94296.53;;;28.69;42.17
7768;BME280;3928;42.626;23.382;2023-09-19T11:56:11;94289.00;;;28.64;44.28
7768;BME280;3928;42.626;23.382;2023-09-19T11:58:41;94280.44;;;28.81;45.98
7768;BME280;3928;42.626;23.382;2023-09-19T12:01:09;94291.50;;;29.06;43.51
7768;BME280;3928;42.626;23.382;2023-09-19T12:03:43;94288.84;;;29.06;42.18
7768;BME280;3928;42.626;23.382;2023-09-19T12:06:14;94289.69;;;29.06;43.40
7768;BME280;3928;42.626;23.382;2023-09-19T12:08:42;94296.34;;;29.10;44.61
7768;BME280;3928;42.626;23.382;2023-09-19T12:11:14;94296.34;;;29.10;43.93
7768;BME280;3928;42.626;23.382;2023-09-19T12:13:43;94283.28;;;29.19;45.39
7768;BME280;3928;42.626;23.382;2023-09-19T12:16:13;94287.66;;;29.49;44.44
7768;BME280;3928;42.626;23.382;2023-09-19T12:18:41;94283.97;;;29.79;43.82
7768;BME280;3928;42.626;23.382;2023-09-19T12:21:24;94283.97;;;29.98;42.84
7768;BME280;3928;42.626;23.382;2023-09-19T12:23:59;94284.63;;;30.00;39.98
7768;BME280;3928;42.626;23.382;2023-09-19T12:26:27;94275.34;;;29.96;40.56
7768;BME280;3928;42.626;23.382;2023-09-19T12:28:55;94277.53;;;30.01;41.31
7768;BME280;3928;42.626;23.382;2023-09-19T12:31:23;94264.16;;;30.12;42.54
7768;BME280;3928;42.626;23.382;2023-09-19T12:33:55;94264.19;;;30.39;40.11
7768;BME280;3928;42.626;23.382;2023-09-19T12:36:22;94262.66;;;30.74;40.90
7768;BME280;3928;42.626;23.382;2023-09-19T12:38:55;94256.47;;;31.28;40.72
7768;BME280;3928;42.626;23.382;2023-09-19T12:41:24;94254.75;;;31.81;39.53
7768;BME280;3928;42.626;23.382;2023-09-19T12:43:53;94247.66;;;32.33;39.33
7768;BME280;3928;42.626;23.382;2023-09-19T12:46:21;94249.56;;;31.97;35.81
7768;BME280;3928;42.626;23.382;2023-09-19T12:49:14;94242.31;;;31.81;37.08
7768;BME280;3928;42.626;23.382;2023-09-19T12:51:42;94235.13;;;31.74;35.37
7768;BME280;3928;42.626;23.382;2023-09-19T12:54:09;94240.22;;;32.19;38.29
7768;BME280;3928;42.626;23.382;2023-09-19T12:56:39;94249.75;;;32.64;37.42
7768;BME280;3928;42.626;23.382;2023-09-19T12:59:12;94249.78;;;33.22;36.30
7768;BME280;3928;42.626;23.382;2023-09-19T13:01:40;94242.34;;;33.66;36.17
7768;BME280;3928;42.626;23.382;2023-09-19T13:04:15;94255.09;;;34.20;34.91
7768;BME280;3928;42.626;23.382;2023-09-19T13:06:45;94253.19;;;34.61;33.84
7768;BME280;3928;42.626;23.382;2023-09-19T13:09:14;94237.00;;;35.02;32.58
7768;BME280;3928;42.626;23.382;2023-09-19T13:11:42;94243.13;;;35.41;32.53
7768;BME280;3928;42.626;23.382;2023-09-19T13:14:17;94233.22;;;35.50;32.06
7768;BME280;3928;42.626;23.382;2023-09-19T13:16:58;94230.34;;;35.74;30.91
7768;BME280;3928;42.626;23.382;2023-09-19T13:19:40;94218.53;;;35.92;31.29
7768;BME280;3928;42.626;23.382;2023-09-19T13:22:38;94227.06;;;36.25;31.40
7768;BME280;3928;42.626;23.382;2023-09-19T13:25:07;94219.75;;;36.19;30.33
7768;BME280;3928;42.626;23.382;2023-09-19T13:27:39;94219.81;;;36.11;30.84
7768;BME280;3928;42.626;23.382;2023-09-19T13:30:09;94224.00;;;36.28;30.40
7768;BME280;3928;42.626;23.382;2023-09-19T13:32:36;94205.13;;;36.44;30.96
7768;BME280;3928;42.626;23.382;2023-09-19T13:35:05;94213.75;;;36.76;29.88
7768;BME280;3928;42.626;23.382;2023-09-19T13:37:34;94216.53;;;36.97;29.84
7768;BME280;3928;42.626;23.382;2023-09-19T13:40:01;94205.19;;;37.16;30.03
7768;BME280;3928;42.626;23.382;2023-09-19T13:42:30;94205.38;;;37.30;29.05